Woodbridge, Virginia
Current Conditions -  °F | °C
As of 12:55 PM on Thursday 18 Dec 2014 (Local Time) from KDAA Reporting Station
Scattered Clouds Scattered Clouds  
Wind Chill: 31°   Ceiling: Unl
Heat Index: 40°   Visibility: 10mi
Dew Point: 20°   Wind: 15mph
Humidity: 46%   Direction: 320°NW
Pressure: 30.13"   Gusts: 26mph
Location:  38.66°N, 77.25°W
Report Text: KDAA 181755Z 32013G23KT 10SM SCT040 04/M06 A3013 RMK A02A SLP205 T00421064 10042 20008 58024
Loading
Personal Weather Stations






























Interactive Weather Map New forecast layout! Learn more

10-Day Weather Forecast

Advertisements
Track Severe Weather on mobile